sensor_id;sensor_type;location;lat;lon;timestamp;P1;durP1;ratioP1;P2;durP2;ratioP2
57317;SDS011;43157;50.982;18.132;2023-04-24T00:00:54;12.00;;;4.80;;
57317;SDS011;43157;50.982;18.132;2023-04-24T00:03:24;12.30;;;5.00;;
57317;SDS011;43157;50.982;18.132;2023-04-24T00:05:49;11.90;;;4.30;;
57317;SDS011;43157;50.982;18.132;2023-04-24T00:08:16;15.10;;;5.80;;
57317;SDS011;43157;50.982;18.132;2023-04-24T00:10:42;13.50;;;5.40;;
57317;SDS011;43157;50.982;18.132;2023-04-24T00:13:08;11.60;;;5.30;;
57317;SDS011;43157;50.982;18.132;2023-04-24T00:15:33;11.70;;;5.40;;
57317;SDS011;43157;50.982;18.132;2023-04-24T00:17:59;14.40;;;5.30;;
57317;SDS011;43157;50.982;18.132;2023-04-24T00:20:26;12.20;;;5.60;;
57317;SDS011;43157;50.982;18.132;2023-04-24T00:22:54;11.80;;;4.50;;
57317;SDS011;43157;50.982;18.132;2023-04-24T00:25:20;16.90;;;4.90;;
57317;SDS011;43157;50.982;18.132;2023-04-24T00:27:46;12.40;;;5.30;;
57317;SDS011;43157;50.982;18.132;2023-04-24T00:30:12;10.60;;;4.20;;
57317;SDS011;43157;50.982;18.132;2023-04-24T00:32:38;12.60;;;5.00;;
57317;SDS011;43157;50.982;18.132;2023-04-24T00:35:04;12.80;;;4.90;;
57317;SDS011;43157;50.982;18.132;2023-04-24T00:37:31;10.90;;;4.30;;
57317;SDS011;43157;50.982;18.132;2023-04-24T00:39:57;10.70;;;4.30;;
57317;SDS011;43157;50.982;18.132;2023-04-24T00:42:23;9.70;;;4.50;;
57317;SDS011;43157;50.982;18.132;2023-04-24T00:44:49;10.70;;;4.80;;
57317;SDS011;43157;50.982;18.132;2023-04-24T00:47:15;13.60;;;4.60;;
57317;SDS011;43157;50.982;18.132;2023-04-24T00:49:40;12.00;;;4.90;;
57317;SDS011;43157;50.982;18.132;2023-04-24T00:52:06;10.90;;;4.40;;
57317;SDS011;43157;50.982;18.132;2023-04-24T00:54:34;13.50;;;4.40;;
57317;SDS011;43157;50.982;18.132;2023-04-24T00:57:01;9.30;;;4.60;;
57317;SDS011;43157;50.982;18.132;2023-04-24T00:59:28;12.30;;;5.40;;
57317;SDS011;43157;50.982;18.132;2023-04-24T01:01:53;11.20;;;4.80;;
57317;SDS011;43157;50.982;18.132;2023-04-24T01:04:20;10.60;;;4.50;;
57317;SDS011;43157;50.982;18.132;2023-04-24T01:06:45;10.30;;;4.20;;
57317;SDS011;43157;50.982;18.132;2023-04-24T01:09:12;9.50;;;3.60;;
57317;SDS011;43157;50.982;18.132;2023-04-24T01:11:38;10.80;;;4.70;;
57317;SDS011;43157;50.982;18.132;2023-04-24T01:14:06;12.10;;;4.70;;
57317;SDS011;43157;50.982;18.132;2023-04-24T01:16:31;10.30;;;4.40;;
57317;SDS011;43157;50.982;18.132;2023-04-24T01:18:57;13.20;;;4.90;;
57317;SDS011;43157;50.982;18.132;2023-04-24T01:21:23;11.40;;;4.60;;
57317;SDS011;43157;50.982;18.132;2023-04-24T01:23:49;12.40;;;4.80;;
57317;SDS011;43157;50.982;18.132;2023-04-24T01:26:17;10.10;;;4.70;;
57317;SDS011;43157;50.982;18.132;2023-04-24T01:28:45;10.90;;;4.40;;
57317;SDS011;43157;50.982;18.132;2023-04-24T01:31:11;11.60;;;4.50;;
57317;SDS011;43157;50.982;18.132;2023-04-24T01:33:37;12.20;;;4.90;;
57317;SDS011;43157;50.982;18.132;2023-04-24T01:36:03;13.90;;;5.70;;
57317;SDS011;43157;50.982;18.132;2023-04-24T01:38:29;13.90;;;6.20;;
57317;SDS011;43157;50.982;18.132;2023-04-24T01:40:54;11.80;;;5.30;;
57317;SDS011;43157;50.982;18.132;2023-04-24T01:43:21;12.80;;;5.30;;
57317;SDS011;43157;50.982;18.132;2023-04-24T01:45:46;12.50;;;4.70;;
57317;SDS011;43157;50.982;18.132;2023-04-24T01:48:12;11.60;;;4.90;;
57317;SDS011;43157;50.982;18.132;2023-04-24T01:50:38;12.20;;;5.20;;
57317;SDS011;43157;50.982;18.132;2023-04-24T01:53:04;14.30;;;5.10;;
57317;SDS011;43157;50.982;18.132;2023-04-24T01:55:30;11.70;;;5.30;;
57317;SDS011;43157;50.982;18.132;2023-04-24T01:57:56;15.10;;;5.30;;
57317;SDS011;43157;50.982;18.132;2023-04-24T02:00:22;13.20;;;4.80;;
57317;SDS011;43157;50.982;18.132;2023-04-24T02:02:48;13.70;;;5.00;;
57317;SDS011;43157;50.982;18.132;2023-04-24T02:05:14;12.30;;;5.10;;
57317;SDS011;43157;50.982;18.132;2023-04-24T02:07:40;12.90;;;5.30;;
57317;SDS011;43157;50.982;18.132;2023-04-24T02:10:05;13.80;;;5.40;;
57317;SDS011;43157;50.982;18.132;2023-04-24T02:12:31;13.00;;;5.00;;
57317;SDS011;43157;50.982;18.132;2023-04-24T02:14:58;11.10;;;5.10;;
57317;SDS011;43157;50.982;18.132;2023-04-24T02:17:23;12.70;;;5.20;;
57317;SDS011;43157;50.982;18.132;2023-04-24T02:19:49;15.60;;;5.40;;
57317;SDS011;43157;50.982;18.132;2023-04-24T02:22:14;12.80;;;5.50;;
57317;SDS011;43157;50.982;18.132;2023-04-24T02:24:41;11.40;;;5.60;;
57317;SDS011;43157;50.982;18.132;2023-04-24T02:27:06;15.10;;;5.60;;
57317;SDS011;43157;50.982;18.132;2023-04-24T02:29:32;13.30;;;5.20;;
57317;SDS011;43157;50.982;18.132;2023-04-24T02:31:57;15.00;;;6.30;;
57317;SDS011;43157;50.982;18.132;2023-04-24T02:34:23;15.10;;;6.20;;
57317;SDS011;43157;50.982;18.132;2023-04-24T02:36:49;14.30;;;6.30;;
57317;SDS011;43157;50.982;18.132;2023-04-24T02:39:14;12.60;;;6.10;;
57317;SDS011;43157;50.982;18.132;2023-04-24T02:41:44;17.00;;;7.00;;
57317;SDS011;43157;50.982;18.132;2023-04-24T02:44:09;16.40;;;6.50;;
57317;SDS011;43157;50.982;18.132;2023-04-24T02:46:35;17.80;;;6.90;;
57317;SDS011;43157;50.982;18.132;2023-04-24T02:49:00;16.80;;;6.90;;
57317;SDS011;43157;50.982;18.132;2023-04-24T02:51:26;20.10;;;7.10;;
57317;SDS011;43157;50.982;18.132;2023-04-24T02:53:52;17.60;;;7.20;;
57317;SDS011;43157;50.982;18.132;2023-04-24T02:56:18;14.60;;;6.70;;
57317;SDS011;43157;50.982;18.132;2023-04-24T02:58:43;15.60;;;7.50;;
57317;SDS011;43157;50.982;18.132;2023-04-24T03:01:09;14.20;;;7.70;;
57317;SDS011;43157;50.982;18.132;2023-04-24T03:03:35;15.70;;;7.70;;
57317;SDS011;43157;50.982;18.132;2023-04-24T03:06:02;16.20;;;7.50;;
57317;SDS011;43157;50.982;18.132;2023-04-24T03:08:27;15.70;;;7.90;;
57317;SDS011;43157;50.982;18.132;2023-04-24T03:10:53;17.30;;;7.70;;
57317;SDS011;43157;50.982;18.132;2023-04-24T03:13:19;15.90;;;8.50;;
57317;SDS011;43157;50.982;18.132;2023-04-24T03:15:44;16.20;;;7.10;;
57317;SDS011;43157;50.982;18.132;2023-04-24T03:18:11;14.10;;;7.00;;
57317;SDS011;43157;50.982;18.132;2023-04-24T03:20:37;14.30;;;7.70;;
57317;SDS011;43157;50.982;18.132;2023-04-24T03:23:03;11.90;;;6.30;;
57317;SDS011;43157;50.982;18.132;2023-04-24T03:25:28;17.10;;;7.30;;
57317;SDS011;43157;50.982;18.132;2023-04-24T03:27:56;14.00;;;6.80;;
57317;SDS011;43157;50.982;18.132;2023-04-24T03:30:22;16.30;;;7.40;;
57317;SDS011;43157;50.982;18.132;2023-04-24T03:32:47;15.00;;;6.90;;
57317;SDS011;43157;50.982;18.132;2023-04-24T03:35:13;14.60;;;6.50;;
57317;SDS011;43157;50.982;18.132;2023-04-24T03:37:39;14.00;;;7.20;;
57317;SDS011;43157;50.982;18.132;2023-04-24T03:40:05;14.10;;;6.40;;
57317;SDS011;43157;50.982;18.132;2023-04-24T03:42:32;13.50;;;5.90;;
57317;SDS011;43157;50.982;18.132;2023-04-24T03:44:57;14.10;;;6.40;;
57317;SDS011;43157;50.982;18.132;2023-04-24T03:47:23;12.30;;;6.20;;
57317;SDS011;43157;50.982;18.132;2023-04-24T03:49:49;11.10;;;5.90;;
57317;SDS011;43157;50.982;18.132;2023-04-24T03:52:15;13.70;;;6.00;;
57317;SDS011;43157;50.982;18.132;2023-04-24T03:54:40;13.10;;;6.20;;
57317;SDS011;43157;50.982;18.132;2023-04-24T03:57:06;14.00;;;6.70;;
57317;SDS011;43157;50.982;18.132;2023-04-24T03:59:31;15.90;;;7.20;;
57317;SDS011;43157;50.982;18.132;2023-04-24T04:14:05;18.00;;;7.90;;
57317;SDS011;43157;50.982;18.132;2023-04-24T04:16:31;14.80;;;7.80;;
57317;SDS011;43157;50.982;18.132;2023-04-24T04:18:57;15.10;;;7.50;;
57317;SDS011;43157;50.982;18.132;2023-04-24T04:21:22;17.20;;;8.90;;
57317;SDS011;43157;50.982;18.132;2023-04-24T04:23:48;15.50;;;8.10;;
57317;SDS011;43157;50.982;18.132;2023-04-24T04:26:13;16.10;;;8.50;;
57317;SDS011;43157;50.982;18.132;2023-04-24T04:28:39;17.80;;;7.60;;
57317;SDS011;43157;50.982;18.132;2023-04-24T04:31:05;15.10;;;7.40;;
57317;SDS011;43157;50.982;18.132;2023-04-24T04:33:33;16.40;;;8.30;;
57317;SDS011;43157;50.982;18.132;2023-04-24T04:35:59;17.00;;;8.10;;
57317;SDS011;43157;50.982;18.132;2023-04-24T04:38:25;15.80;;;8.50;;
57317;SDS011;43157;50.982;18.132;2023-04-24T04:40:55;21.00;;;10.50;;
57317;SDS011;43157;50.982;18.132;2023-04-24T04:43:22;19.80;;;10.20;;
57317;SDS011;43157;50.982;18.132;2023-04-24T04:45:51;16.90;;;8.80;;
57317;SDS011;43157;50.982;18.132;2023-04-24T04:48:17;18.80;;;9.60;;
57317;SDS011;43157;50.982;18.132;2023-04-24T04:50:44;18.40;;;8.80;;
57317;SDS011;43157;50.982;18.132;2023-04-24T04:53:09;16.80;;;8.90;;
57317;SDS011;43157;50.982;18.132;2023-04-24T04:55:35;19.00;;;8.00;;
57317;SDS011;43157;50.982;18.132;2023-04-24T04:58:02;17.30;;;7.20;;
57317;SDS011;43157;50.982;18.132;2023-04-24T05:00:27;15.60;;;7.20;;
57317;SDS011;43157;50.982;18.132;2023-04-24T05:02:54;14.90;;;7.00;;
57317;SDS011;43157;50.982;18.132;2023-04-24T05:05:19;19.30;;;8.80;;
57317;SDS011;43157;50.982;18.132;2023-04-24T05:07:45;16.20;;;7.20;;
57317;SDS011;43157;50.982;18.132;2023-04-24T05:10:11;14.60;;;6.60;;
57317;SDS011;43157;50.982;18.132;2023-04-24T05:12:40;17.30;;;8.00;;
57317;SDS011;43157;50.982;18.132;2023-04-24T05:15:05;16.40;;;8.00;;
57317;SDS011;43157;50.982;18.132;2023-04-24T05:17:32;16.70;;;7.60;;
57317;SDS011;43157;50.982;18.132;2023-04-24T05:19:57;18.60;;;10.10;;
57317;SDS011;43157;50.982;18.132;2023-04-24T05:22:23;58.00;;;24.40;;
57317;SDS011;43157;50.982;18.132;2023-04-24T05:24:49;111.90;;;45.20;;
57317;SDS011;43157;50.982;18.132;2023-04-24T05:27:14;50.00;;;25.00;;
57317;SDS011;43157;50.982;18.132;2023-04-24T05:29:40;21.30;;;11.70;;
57317;SDS011;43157;50.982;18.132;2023-04-24T05:32:06;17.10;;;9.30;;
57317;SDS011;43157;50.982;18.132;2023-04-24T05:34:31;20.10;;;10.80;;
57317;SDS011;43157;50.982;18.132;2023-04-24T05:36:57;17.20;;;8.70;;
57317;SDS011;43157;50.982;18.132;2023-04-24T05:39:23;19.10;;;9.50;;
57317;SDS011;43157;50.982;18.132;2023-04-24T05:41:50;13.70;;;7.00;;
57317;SDS011;43157;50.982;18.132;2023-04-24T05:44:16;19.30;;;8.40;;
57317;SDS011;43157;50.982;18.132;2023-04-24T05:46:42;18.10;;;8.10;;
57317;SDS011;43157;50.982;18.132;2023-04-24T05:49:07;16.00;;;8.10;;
57317;SDS011;43157;50.982;18.132;2023-04-24T05:51:33;15.10;;;7.90;;
57317;SDS011;43157;50.982;18.132;2023-04-24T05:53:58;14.90;;;7.50;;
57317;SDS011;43157;50.982;18.132;2023-04-24T05:56:24;15.30;;;7.50;;
57317;SDS011;43157;50.982;18.132;2023-04-24T05:58:50;18.00;;;8.30;;
57317;SDS011;43157;50.982;18.132;2023-04-24T06:01:15;18.40;;;9.10;;
57317;SDS011;43157;50.982;18.132;2023-04-24T06:03:41;18.20;;;8.90;;
57317;SDS011;43157;50.982;18.132;2023-04-24T06:06:07;16.00;;;7.70;;
57317;SDS011;43157;50.982;18.132;2023-04-24T06:08:34;17.40;;;7.80;;
57317;SDS011;43157;50.982;18.132;2023-04-24T06:11:00;21.90;;;9.70;;
57317;SDS011;43157;50.982;18.132;2023-04-24T06:13:26;20.00;;;10.60;;
57317;SDS011;43157;50.982;18.132;2023-04-24T06:15:52;15.10;;;7.60;;
57317;SDS011;43157;50.982;18.132;2023-04-24T06:18:18;13.80;;;6.70;;
57317;SDS011;43157;50.982;18.132;2023-04-24T06:20:44;16.50;;;7.50;;
57317;SDS011;43157;50.982;18.132;2023-04-24T06:23:11;15.20;;;7.00;;
57317;SDS011;43157;50.982;18.132;2023-04-24T06:25:36;13.40;;;6.60;;
57317;SDS011;43157;50.982;18.132;2023-04-24T06:28:03;12.80;;;6.60;;
57317;SDS011;43157;50.982;18.132;2023-04-24T06:30:29;17.00;;;6.60;;
57317;SDS011;43157;50.982;18.132;2023-04-24T06:32:54;14.80;;;6.90;;
57317;SDS011;43157;50.982;18.132;2023-04-24T06:35:20;15.80;;;6.80;;
57317;SDS011;43157;50.982;18.132;2023-04-24T06:37:46;17.20;;;6.90;;
57317;SDS011;43157;50.982;18.132;2023-04-24T06:40:11;14.80;;;6.10;;
57317;SDS011;43157;50.982;18.132;2023-04-24T06:42:37;13.30;;;6.20;;
57317;SDS011;43157;50.982;18.132;2023-04-24T06:45:03;20.80;;;9.00;;
57317;SDS011;43157;50.982;18.132;2023-04-24T06:47:30;16.00;;;7.60;;
57317;SDS011;43157;50.982;18.132;2023-04-24T06:49:56;16.10;;;7.20;;
57317;SDS011;43157;50.982;18.132;2023-04-24T06:52:22;13.70;;;6.40;;
57317;SDS011;43157;50.982;18.132;2023-04-24T06:54:48;15.40;;;6.50;;
57317;SDS011;43157;50.982;18.132;2023-04-24T06:57:14;21.70;;;9.10;;
57317;SDS011;43157;50.982;18.132;2023-04-24T06:59:41;18.40;;;8.60;;
57317;SDS011;43157;50.982;18.132;2023-04-24T07:02:07;13.30;;;6.20;;
57317;SDS011;43157;50.982;18.132;2023-04-24T07:04:33;13.70;;;6.20;;
57317;SDS011;43157;50.982;18.132;2023-04-24T07:06:58;17.00;;;7.40;;
57317;SDS011;43157;50.982;18.132;2023-04-24T07:09:25;110.00;;;30.00;;
57317;SDS011;43157;50.982;18.132;2023-04-24T07:11:51;51.20;;;15.70;;
57317;SDS011;43157;50.982;18.132;2023-04-24T07:14:17;35.20;;;13.50;;
57317;SDS011;43157;50.982;18.132;2023-04-24T07:16:43;18.70;;;8.60;;
57317;SDS011;43157;50.982;18.132;2023-04-24T07:19:09;14.40;;;7.10;;
57317;SDS011;43157;50.982;18.132;2023-04-24T07:21:35;14.80;;;6.90;;
57317;SDS011;43157;50.982;18.132;2023-04-24T07:24:01;18.00;;;9.20;;
57317;SDS011;43157;50.982;18.132;2023-04-24T07:26:27;17.10;;;7.80;;
57317;SDS011;43157;50.982;18.132;2023-04-24T07:28:54;13.90;;;6.50;;
57317;SDS011;43157;50.982;18.132;2023-04-24T07:31:20;14.50;;;6.90;;
57317;SDS011;43157;50.982;18.132;2023-04-24T07:33:46;17.40;;;7.50;;
57317;SDS011;43157;50.982;18.132;2023-04-24T07:36:12;18.40;;;9.70;;
57317;SDS011;43157;50.982;18.132;2023-04-24T07:38:42;16.10;;;6.20;;
57317;SDS011;43157;50.982;18.132;2023-04-24T07:41:08;15.00;;;6.50;;
57317;SDS011;43157;50.982;18.132;2023-04-24T07:43:34;13.20;;;5.60;;
57317;SDS011;43157;50.982;18.132;2023-04-24T07:46:00;19.20;;;5.80;;
57317;SDS011;43157;50.982;18.132;2023-04-24T07:48:26;13.80;;;4.80;;
57317;SDS011;43157;50.982;18.132;2023-04-24T07:50:52;11.90;;;4.30;;
57317;SDS011;43157;50.982;18.132;2023-04-24T07:53:18;11.10;;;4.70;;
57317;SDS011;43157;50.982;18.132;2023-04-24T07:55:43;12.90;;;5.30;;
57317;SDS011;43157;50.982;18.132;2023-04-24T07:58:09;9.80;;;4.00;;
57317;SDS011;43157;50.982;18.132;2023-04-24T08:00:35;7.60;;;3.50;;
57317;SDS011;43157;50.982;18.132;2023-04-24T08:03:01;10.10;;;4.20;;
57317;SDS011;43157;50.982;18.132;2023-04-24T08:05:27;13.00;;;4.30;;
57317;SDS011;43157;50.982;18.132;2023-04-24T08:07:55;12.90;;;4.00;;
57317;SDS011;43157;50.982;18.132;2023-04-24T08:10:23;10.40;;;4.40;;
57317;SDS011;43157;50.982;18.132;2023-04-24T08:12:49;9.80;;;4.00;;
57317;SDS011;43157;50.982;18.132;2023-04-24T08:15:15;9.20;;;4.40;;
57317;SDS011;43157;50.982;18.132;2023-04-24T08:17:40;8.80;;;4.00;;
57317;SDS011;43157;50.982;18.132;2023-04-24T08:20:08;11.00;;;4.30;;
57317;SDS011;43157;50.982;18.132;2023-04-24T08:22:41;10.30;;;3.50;;
57317;SDS011;43157;50.982;18.132;2023-04-24T08:25:09;9.50;;;3.70;;
57317;SDS011;43157;50.982;18.132;2023-04-24T08:27:35;8.60;;;3.70;;
57317;SDS011;43157;50.982;18.132;2023-04-24T08:30:02;8.60;;;3.80;;
57317;SDS011;43157;50.982;18.132;2023-04-24T08:32:29;9.70;;;3.70;;
57317;SDS011;43157;50.982;18.132;2023-04-24T08:34:55;12.90;;;4.00;;
57317;SDS011;43157;50.982;18.132;2023-04-24T08:37:22;12.00;;;4.60;;
57317;SDS011;43157;50.982;18.132;2023-04-24T08:39:48;11.70;;;4.30;;
57317;SDS011;43157;50.982;18.132;2023-04-24T08:42:15;10.70;;;4.00;;
57317;SDS011;43157;50.982;18.132;2023-04-24T08:44:41;10.10;;;4.40;;
57317;SDS011;43157;50.982;18.132;2023-04-24T08:47:07;12.40;;;4.30;;
57317;SDS011;43157;50.982;18.132;2023-04-24T08:49:33;11.40;;;4.20;;
57317;SDS011;43157;50.982;18.132;2023-04-24T08:51:59;14.40;;;4.20;;
57317;SDS011;43157;50.982;18.132;2023-04-24T08:54:25;11.30;;;4.20;;
57317;SDS011;43157;50.982;18.132;2023-04-24T08:56:51;12.00;;;4.10;;
57317;SDS011;43157;50.982;18.132;2023-04-24T08:59:19;11.30;;;4.00;;
57317;SDS011;43157;50.982;18.132;2023-04-24T09:01:46;12.40;;;4.10;;
57317;SDS011;43157;50.982;18.132;2023-04-24T09:04:14;9.90;;;3.80;;
57317;SDS011;43157;50.982;18.132;2023-04-24T09:06:41;12.20;;;4.10;;
57317;SDS011;43157;50.982;18.132;2023-04-24T09:09:07;10.10;;;3.90;;
57317;SDS011;43157;50.982;18.132;2023-04-24T09:11:33;11.30;;;4.00;;
57317;SDS011;43157;50.982;18.132;2023-04-24T09:13:59;9.60;;;3.70;;
57317;SDS011;43157;50.982;18.132;2023-04-24T09:16:26;10.70;;;3.80;;
57317;SDS011;43157;50.982;18.132;2023-04-24T09:18:52;9.60;;;3.80;;
57317;SDS011;43157;50.982;18.132;2023-04-24T09:21:19;9.90;;;4.00;;
57317;SDS011;43157;50.982;18.132;2023-04-24T09:23:46;12.40;;;3.80;;
57317;SDS011;43157;50.982;18.132;2023-04-24T09:26:12;14.20;;;4.30;;
57317;SDS011;43157;50.982;18.132;2023-04-24T09:28:40;11.70;;;4.20;;
57317;SDS011;43157;50.982;18.132;2023-04-24T09:31:12;10.50;;;3.70;;
57317;SDS011;43157;50.982;18.132;2023-04-24T09:33:52;8.70;;;3.70;;
57317;SDS011;43157;50.982;18.132;2023-04-24T09:36:27;10.00;;;4.00;;
57317;SDS011;43157;50.982;18.132;2023-04-24T09:39:02;13.00;;;4.40;;
57317;SDS011;43157;50.982;18.132;2023-04-24T09:41:29;10.50;;;4.20;;
57317;SDS011;43157;50.982;18.132;2023-04-24T09:43:57;10.50;;;4.00;;
57317;SDS011;43157;50.982;18.132;2023-04-24T09:46:37;9.80;;;4.40;;
57317;SDS011;43157;50.982;18.132;2023-04-24T09:49:11;9.00;;;4.00;;
57317;SDS011;43157;50.982;18.132;2023-04-24T09:51:42;9.10;;;3.90;;
57317;SDS011;43157;50.982;18.132;2023-04-24T09:54:18;8.30;;;3.70;;
57317;SDS011;43157;50.982;18.132;2023-04-24T09:56:51;12.30;;;4.30;;
57317;SDS011;43157;50.982;18.132;2023-04-24T09:59:17;12.40;;;4.20;;
57317;SDS011;43157;50.982;18.132;2023-04-24T10:01:43;9.50;;;3.70;;
57317;SDS011;43157;50.982;18.132;2023-04-24T10:06:42;10.00;;;4.20;;
57317;SDS011;43157;50.982;18.132;2023-04-24T10:09:08;11.10;;;4.30;;
57317;SDS011;43157;50.982;18.132;2023-04-24T10:11:36;11.40;;;4.10;;
57317;SDS011;43157;50.982;18.132;2023-04-24T10:14:02;10.30;;;4.00;;
57317;SDS011;43157;50.982;18.132;2023-04-24T10:16:29;9.40;;;3.90;;
57317;SDS011;43157;50.982;18.132;2023-04-24T10:18:55;9.90;;;4.40;;
57317;SDS011;43157;50.982;18.132;2023-04-24T10:21:24;11.30;;;3.90;;
57317;SDS011;43157;50.982;18.132;2023-04-24T10:23:52;11.20;;;3.90;;
57317;SDS011;43157;50.982;18.132;2023-04-24T10:26:18;10.90;;;4.50;;
57317;SDS011;43157;50.982;18.132;2023-04-24T10:28:45;13.00;;;4.40;;
57317;SDS011;43157;50.982;18.132;2023-04-24T10:31:11;10.50;;;4.10;;
57317;SDS011;43157;50.982;18.132;2023-04-24T10:33:38;10.80;;;3.90;;
57317;SDS011;43157;50.982;18.132;2023-04-24T10:36:07;11.90;;;4.30;;
57317;SDS011;43157;50.982;18.132;2023-04-24T10:38:34;9.30;;;4.00;;
57317;SDS011;43157;50.982;18.132;2023-04-24T10:41:07;10.80;;;4.30;;
57317;SDS011;43157;50.982;18.132;2023-04-24T10:43:45;11.40;;;4.40;;
57317;SDS011;43157;50.982;18.132;2023-04-24T10:46:16;11.90;;;4.50;;
57317;SDS011;43157;50.982;18.132;2023-04-24T10:48:51;9.90;;;4.40;;
57317;SDS011;43157;50.982;18.132;2023-04-24T10:51:21;12.40;;;3.90;;
57317;SDS011;43157;50.982;18.132;2023-04-24T10:53:49;9.90;;;3.70;;
57317;SDS011;43157;50.982;18.132;2023-04-24T10:56:15;12.20;;;4.50;;
57317;SDS011;43157;50.982;18.132;2023-04-24T10:58:42;11.60;;;4.00;;
57317;SDS011;43157;50.982;18.132;2023-04-24T11:04:01;9.70;;;4.00;;
57317;SDS011;43157;50.982;18.132;2023-04-24T11:06:31;11.80;;;4.40;;
57317;SDS011;43157;50.982;18.132;2023-04-24T11:09:02;9.70;;;4.30;;
57317;SDS011;43157;50.982;18.132;2023-04-24T11:11:30;8.80;;;4.30;;
57317;SDS011;43157;50.982;18.132;2023-04-24T11:19:08;13.10;;;4.90;;
57317;SDS011;43157;50.982;18.132;2023-04-24T11:21:49;9.50;;;4.10;;
57317;SDS011;43157;50.982;18.132;2023-04-24T11:26:48;8.60;;;4.30;;
57317;SDS011;43157;50.982;18.132;2023-04-24T11:29:13;11.20;;;4.70;;
57317;SDS011;43157;50.982;18.132;2023-04-24T11:31:40;9.20;;;4.60;;
57317;SDS011;43157;50.982;18.132;2023-04-24T11:34:07;11.70;;;4.90;;
57317;SDS011;43157;50.982;18.132;2023-04-24T11:36:38;11.90;;;4.90;;
57317;SDS011;43157;50.982;18.132;2023-04-24T11:39:04;12.90;;;5.20;;
57317;SDS011;43157;50.982;18.132;2023-04-24T11:41:30;11.40;;;4.70;;
57317;SDS011;43157;50.982;18.132;2023-04-24T11:43:57;11.10;;;4.90;;
57317;SDS011;43157;50.982;18.132;2023-04-24T11:46:23;13.30;;;5.00;;
57317;SDS011;43157;50.982;18.132;2023-04-24T11:48:48;11.20;;;4.50;;
57317;SDS011;43157;50.982;18.132;2023-04-24T11:51:14;13.50;;;5.20;;
57317;SDS011;43157;50.982;18.132;2023-04-24T11:53:40;11.40;;;3.60;;
57317;SDS011;43157;50.982;18.132;2023-04-24T11:56:05;11.80;;;4.60;;
57317;SDS011;43157;50.982;18.132;2023-04-24T11:58:35;13.10;;;4.30;;
57317;SDS011;43157;50.982;18.132;2023-04-24T12:01:01;12.30;;;4.90;;
57317;SDS011;43157;50.982;18.132;2023-04-24T12:03:27;13.90;;;5.10;;
57317;SDS011;43157;50.982;18.132;2023-04-24T12:05:53;13.40;;;4.40;;
57317;SDS011;43157;50.982;18.132;2023-04-24T12:08:30;9.40;;;4.70;;
57317;SDS011;43157;50.982;18.132;2023-04-24T12:10:57;11.20;;;5.00;;
57317;SDS011;43157;50.982;18.132;2023-04-24T12:13:25;10.10;;;5.10;;
57317;SDS011;43157;50.982;18.132;2023-04-24T12:15:51;13.40;;;5.80;;
57317;SDS011;43157;50.982;18.132;2023-04-24T12:18:16;11.30;;;5.50;;
57317;SDS011;43157;50.982;18.132;2023-04-24T12:20:42;11.80;;;5.30;;
57317;SDS011;43157;50.982;18.132;2023-04-24T12:23:07;10.80;;;4.80;;
57317;SDS011;43157;50.982;18.132;2023-04-24T12:25:33;11.80;;;5.20;;
57317;SDS011;43157;50.982;18.132;2023-04-24T12:30:28;11.00;;;4.50;;
57317;SDS011;43157;50.982;18.132;2023-04-24T12:32:56;9.00;;;3.60;;
57317;SDS011;43157;50.982;18.132;2023-04-24T12:35:23;10.70;;;4.50;;
57317;SDS011;43157;50.982;18.132;2023-04-24T12:37:50;10.90;;;5.10;;
57317;SDS011;43157;50.982;18.132;2023-04-24T12:40:16;9.80;;;4.30;;
57317;SDS011;43157;50.982;18.132;2023-04-24T12:42:46;9.90;;;4.70;;
57317;SDS011;43157;50.982;18.132;2023-04-24T12:45:13;8.90;;;4.50;;
57317;SDS011;43157;50.982;18.132;2023-04-24T12:47:40;9.60;;;4.30;;
57317;SDS011;43157;50.982;18.132;2023-04-24T12:50:10;9.40;;;3.40;;
57317;SDS011;43157;50.982;18.132;2023-04-24T12:52:37;10.80;;;4.00;;
57317;SDS011;43157;50.982;18.132;2023-04-24T12:55:04;10.20;;;3.90;;
57317;SDS011;43157;50.982;18.132;2023-04-24T12:57:33;9.30;;;3.70;;
57317;SDS011;43157;50.982;18.132;2023-04-24T13:00:00;9.00;;;3.70;;
57317;SDS011;43157;50.982;18.132;2023-04-24T13:02:27;11.30;;;4.30;;
57317;SDS011;43157;50.982;18.132;2023-04-24T13:04:54;11.10;;;4.30;;
57317;SDS011;43157;50.982;18.132;2023-04-24T13:07:20;7.80;;;3.70;;
57317;SDS011;43157;50.982;18.132;2023-04-24T13:09:47;11.70;;;5.20;;
57317;SDS011;43157;50.982;18.132;2023-04-24T13:12:13;11.80;;;4.70;;
57317;SDS011;43157;50.982;18.132;2023-04-24T13:14:39;10.50;;;4.80;;
57317;SDS011;43157;50.982;18.132;2023-04-24T13:17:05;9.00;;;4.40;;
57317;SDS011;43157;50.982;18.132;2023-04-24T13:19:35;9.90;;;4.60;;
57317;SDS011;43157;50.982;18.132;2023-04-24T13:22:02;9.90;;;5.50;;
57317;SDS011;43157;50.982;18.132;2023-04-24T13:24:28;12.40;;;5.80;;
57317;SDS011;43157;50.982;18.132;2023-04-24T13:26:54;15.10;;;5.90;;
57317;SDS011;43157;50.982;18.132;2023-04-24T13:29:22;12.40;;;5.60;;
57317;SDS011;43157;50.982;18.132;2023-04-24T13:31:49;11.30;;;5.60;;
57317;SDS011;43157;50.982;18.132;2023-04-24T13:34:15;10.40;;;5.20;;
57317;SDS011;43157;50.982;18.132;2023-04-24T13:36:41;11.60;;;5.10;;
57317;SDS011;43157;50.982;18.132;2023-04-24T13:39:07;11.30;;;6.10;;
57317;SDS011;43157;50.982;18.132;2023-04-24T13:41:33;13.90;;;6.00;;
57317;SDS011;43157;50.982;18.132;2023-04-24T13:44:02;12.20;;;5.50;;
57317;SDS011;43157;50.982;18.132;2023-04-24T13:46:28;12.80;;;5.30;;
57317;SDS011;43157;50.982;18.132;2023-04-24T13:48:54;13.20;;;5.80;;
57317;SDS011;43157;50.982;18.132;2023-04-24T13:51:20;11.30;;;5.60;;
57317;SDS011;43157;50.982;18.132;2023-04-24T13:53:46;12.50;;;6.40;;
57317;SDS011;43157;50.982;18.132;2023-04-24T13:56:11;12.70;;;5.70;;
57317;SDS011;43157;50.982;18.132;2023-04-24T13:58:39;12.60;;;6.20;;
57317;SDS011;43157;50.982;18.132;2023-04-24T14:01:05;14.30;;;5.90;;
57317;SDS011;43157;50.982;18.132;2023-04-24T14:03:32;12.00;;;6.10;;
57317;SDS011;43157;50.982;18.132;2023-04-24T14:05:58;12.50;;;6.30;;
57317;SDS011;43157;50.982;18.132;2023-04-24T14:08:24;13.40;;;5.40;;
57317;SDS011;43157;50.982;18.132;2023-04-24T14:10:50;10.20;;;5.60;;
57317;SDS011;43157;50.982;18.132;2023-04-24T14:13:16;10.20;;;5.30;;
57317;SDS011;43157;50.982;18.132;2023-04-24T14:15:42;13.90;;;6.10;;
57317;SDS011;43157;50.982;18.132;2023-04-24T14:18:08;13.50;;;6.30;;
57317;SDS011;43157;50.982;18.132;2023-04-24T14:20:33;11.90;;;6.10;;
57317;SDS011;43157;50.982;18.132;2023-04-24T14:22:59;14.10;;;7.20;;
57317;SDS011;43157;50.982;18.132;2023-04-24T14:25:25;13.10;;;6.80;;
57317;SDS011;43157;50.982;18.132;2023-04-24T14:27:51;13.40;;;6.60;;
57317;SDS011;43157;50.982;18.132;2023-04-24T14:30:17;13.40;;;5.90;;
57317;SDS011;43157;50.982;18.132;2023-04-24T14:32:43;10.90;;;5.90;;
57317;SDS011;43157;50.982;18.132;2023-04-24T14:35:10;12.80;;;6.70;;
57317;SDS011;43157;50.982;18.132;2023-04-24T14:37:36;12.50;;;6.50;;
57317;SDS011;43157;50.982;18.132;2023-04-24T14:40:02;11.50;;;5.80;;
57317;SDS011;43157;50.982;18.132;2023-04-24T14:42:30;13.50;;;6.70;;
57317;SDS011;43157;50.982;18.132;2023-04-24T14:44:56;13.60;;;6.30;;
57317;SDS011;43157;50.982;18.132;2023-04-24T14:47:21;12.60;;;6.30;;